TimeEST,TemperatureF,Dew PointF,Humidity,Sea Level PressureIn,VisibilityMPH,Wind Direction,Wind SpeedMPH,Gust SpeedMPH,PrecipitationIn,Events,Conditions,WindDirDegrees,DateUTC
12:53 AM,52.0,48.9,89,30.01,10.0,Calm,Calm,-,N/A,,Partly Cloudy,0,2012-12-08 05:53:00
1:28 AM,53.6,51.8,94,30.01,5.0,Calm,Calm,-,N/A,,Mostly Cloudy,0,2012-12-08 06:28:00
1:42 AM,55.4,53.6,94,30.01,2.0,Calm,Calm,-,N/A,,Overcast,0,2012-12-08 06:42:00
1:53 AM,55.9,52.0,87,30.01,2.0,Calm,Calm,-,N/A,,Overcast,0,2012-12-08 06:53:00
2:11 AM,55.4,53.6,94,30.01,0.8,Calm,Calm,-,N/A,,Mist,0,2012-12-08 07:11:00
2:25 AM,55.4,53.6,94,30.01,0.2,Calm,Calm,-,N/A,Fog,Fog,0,2012-12-08 07:25:00
2:33 AM,55.4,55.4,100,30.01,0.2,Calm,Calm,-,N/A,Fog,Fog,0,2012-12-08 07:33:00
2:53 AM,55.9,55.0,97,30.01,0.1,Calm,Calm,-,N/A,Fog,Fog,0,2012-12-08 07:53:00
3:16 AM,57.2,55.4,94,30.01,0.5,Calm,Calm,-,N/A,Fog,Fog,0,2012-12-08 08:16:00
3:33 AM,55.4,53.6,94,30.00,2.0,East,3.5,-,N/A,,Overcast,100,2012-12-08 08:33:00
3:53 AM,55.0,53.1,93,30.00,2.0,Calm,Calm,-,N/A,,Overcast,0,2012-12-08 08:53:00
4:09 AM,55.4,53.6,94,30.00,1.5,East,3.5,-,N/A,,Overcast,100,2012-12-08 09:09:00
4:24 AM,55.4,53.6,94,30.00,0.2,Calm,Calm,-,N/A,Fog,Fog,0,2012-12-08 09:24:00
4:47 AM,55.4,53.6,94,30.00,1.0,ESE,4.6,-,N/A,,Mist,110,2012-12-08 09:47:00
4:53 AM,55.0,53.1,93,29.99,1.0,ESE,4.6,-,N/A,,Mist,110,2012-12-08 09:53:00
5:29 AM,55.4,53.6,94,30.00,0.5,ESE,8.1,-,N/A,Fog,Fog,120,2012-12-08 10:29:00
5:48 AM,55.4,53.6,94,30.01,0.2,SE,4.6,-,N/A,Fog,Fog,140,2012-12-08 10:48:00
5:53 AM,55.4,53.6,94,30.01,0.2,SE,3.5,-,N/A,Fog,Fog,130,2012-12-08 10:53:00
6:53 AM,55.9,55.0,97,30.02,0.2,ESE,3.5,-,N/A,Fog,Fog,120,2012-12-08 11:53:00
7:53 AM,57.0,55.0,93,30.04,0.2,East,3.5,-,N/A,Fog,Fog,100,2012-12-08 12:53:00
8:53 AM,57.0,55.9,96,30.06,0.2,Calm,Calm,-,N/A,Fog,Fog,0,2012-12-08 13:53:00
9:53 AM,59.0,57.0,93,30.07,0.2,East,3.5,-,N/A,Fog,Fog,90,2012-12-08 14:53:00
10:08 AM,59.0,57.2,94,30.07,0.5,East,3.5,-,N/A,Fog,Fog,100,2012-12-08 15:08:00
10:26 AM,59.0,57.2,94,30.06,1.0,Calm,Calm,-,N/A,,Overcast,0,2012-12-08 15:26:00
10:36 AM,59.0,57.2,94,30.07,2.0,SE,3.5,-,N/A,,Overcast,130,2012-12-08 15:36:00
10:53 AM,60.1,57.9,93,30.06,3.0,ESE,5.8,-,N/A,,Overcast,120,2012-12-08 15:53:00
11:50 AM,64.4,57.2,77,30.04,10.0,Calm,Calm,-,N/A,,Overcast,0,2012-12-08 16:50:00
11:53 AM,64.9,59.0,81,30.04,10.0,Calm,Calm,-,N/A,,Overcast,0,2012-12-08 16:53:00
12:26 PM,68.0,59.0,73,30.02,10.0,Variable,4.6,-,N/A,,Mostly Cloudy,0,2012-12-08 17:26:00
12:42 PM,69.8,59.0,68,30.02,10.0,Calm,Calm,-,N/A,,Partly Cloudy,0,2012-12-08 17:42:00
12:53 PM,70.0,59.0,68,30.01,10.0,Variable,3.5,-,N/A,,Scattered Clouds,0,2012-12-08 17:53:00
1:53 PM,71.1,60.1,68,29.99,10.0,Variable,3.5,-,N/A,,Mostly Cloudy,0,2012-12-08 18:53:00
2:53 PM,68.0,60.1,76,30.00,10.0,SSE,8.1,-,N/A,,Mostly Cloudy,150,2012-12-08 19:53:00
3:53 PM,66.0,60.1,81,30.01,10.0,South,8.1,-,N/A,,Overcast,180,2012-12-08 20:53:00
4:02 PM,66.2,60.8,83,30.00,10.0,South,6.9,-,N/A,,Overcast,180,2012-12-08 21:02:00
4:53 PM,64.9,61.0,87,30.01,10.0,SSE,5.8,-,N/A,,Overcast,160,2012-12-08 21:53:00
5:53 PM,64.9,62.1,90,30.02,5.0,Calm,Calm,-,N/A,,Overcast,0,2012-12-08 22:53:00
6:25 PM,64.4,62.6,94,30.03,3.0,ESE,4.6,-,N/A,,Overcast,120,2012-12-08 23:25:00
6:53 PM,64.0,62.1,93,30.04,5.0,ESE,3.5,-,N/A,,Overcast,120,2012-12-08 23:53:00
7:53 PM,64.0,62.1,93,30.04,5.0,ESE,3.5,-,N/A,,Overcast,120,2012-12-09 00:53:00
8:25 PM,64.4,62.6,94,30.06,6.0,Calm,Calm,-,N/A,,Overcast,0,2012-12-09 01:25:00
8:53 PM,64.0,62.1,93,30.06,6.0,ESE,4.6,-,N/A,,Overcast,110,2012-12-09 01:53:00
9:29 PM,64.4,62.6,94,30.06,3.0,Calm,Calm,-,N/A,,Overcast,0,2012-12-09 02:29:00
9:53 PM,64.0,62.1,93,30.06,4.0,ESE,4.6,-,N/A,,Overcast,110,2012-12-09 02:53:00
10:53 PM,63.0,61.0,93,30.06,9.0,ESE,5.8,-,N/A,,Mostly Cloudy,110,2012-12-09 03:53:00
11:53 PM,63.0,61.0,93,30.06,9.0,Calm,Calm,-,N/A,,Overcast,0,2012-12-09 04:53:00